Time;durP1;ratioP1;P1;durP2;ratioP2;P2;SDS_P1;SDS_P2;PMS_P1;PMS_P2;Temp;Humidity;BMP_temperature;BMP_pressure;BME280_temperature;BME280_humidity;BME280_pressure;Samples;Min_cycle;Max_cycle;Signal;HPM_P1;HPM_P2
2021/06/27 00:02:21;;;;;;;10.05;5.03;;;;;;;20.07;80.44;99438.75;1718990;82;21117;-76
2021/06/27 00:04:48;;;;;;;11.53;5.70;;;;;;;20.08;80.20;99443.60;1718777;82;21096;-75
2021/06/27 00:07:15;;;;;;;16.97;6.10;;;;;;;20.09;80.02;99456.00;1730557;82;21069;-74
2021/06/27 00:09:42;;;;;;;20.52;7.17;;;;;;;20.08;79.80;99471.67;1724682;82;21571;-75
2021/06/27 00:12:10;;;;;;;8.28;5.87;;;;;;;20.05;79.63;99479.97;1718215;82;21102;-75
2021/06/27 00:14:38;;;;;;;9.68;5.72;;;;;;;20.03;79.95;99508.64;1725042;82;21559;-75
2021/06/27 00:17:05;;;;;;;17.00;7.17;;;;;;;19.93;80.80;99510.43;1712233;82;21141;-75
2021/06/27 00:19:32;;;;;;;10.85;7.22;;;;;;;19.85;80.89;99515.95;1726314;82;21101;-76
2021/06/27 00:22:03;;;;;;;9.55;6.90;;;;;;;19.81;81.00;99520.34;1723379;82;21108;-77
2021/06/27 00:24:29;;;;;;;9.60;6.47;;;;;;;19.80;81.02;99510.12;1718947;82;21033;-75
2021/06/27 00:26:55;;;;;;;14.58;6.45;;;;;;;19.82;80.89;99532.22;1718695;82;21124;-76
2021/06/27 00:29:22;;;;;;;14.70;6.50;;;;;;;19.86;80.96;99541.67;1712878;82;21030;-77
2021/06/27 00:31:49;;;;;;;18.55;6.58;;;;;;;19.90;80.94;99541.78;1711472;82;21089;-74
2021/06/27 00:34:16;;;;;;;13.80;6.87;;;;;;;19.91;80.73;99538.11;1721319;82;21098;-75
2021/06/27 00:36:45;;;;;;;15.80;6.97;;;;;;;19.90;80.67;99540.44;1720659;82;21627;-76
2021/06/27 00:39:13;;;;;;;5.97;3.77;;;;;;;19.90;80.81;99535.09;1717534;82;21179;-76
2021/06/27 00:41:40;;;;;;;10.08;5.92;;;;;;;19.91;80.85;99540.78;1717911;82;21624;-77
2021/06/27 00:44:08;;;;;;;7.37;4.65;;;;;;;19.92;80.85;99538.95;1720123;82;21042;-78
2021/06/27 00:46:35;;;;;;;10.60;4.97;;;;;;;19.93;80.40;99539.83;1720752;82;21070;-78
2021/06/27 00:49:02;;;;;;;8.40;5.42;;;;;;;19.95;80.18;99549.41;1715597;82;21061;-75
2021/06/27 00:51:29;;;;;;;11.90;6.67;;;;;;;19.96;80.37;99552.42;1682835;82;36085;-77
2021/06/27 00:53:56;;;;;;;12.30;6.83;;;;;;;19.96;80.69;99544.89;1630112;86;21053;-76
2021/06/27 00:56:23;;;;;;;11.18;6.33;;;;;;;19.96;80.66;99536.87;1590338;88;21113;-79
2021/06/27 00:58:50;;;;;;;9.08;5.87;;;;;;;19.91;80.58;99536.78;1608334;88;21577;-79
2021/06/27 01:01:20;;;;;;;12.33;6.08;;;;;;;19.94;80.71;99538.83;1615427;88;21723;-79
2021/06/27 01:03:47;;;;;;;11.18;6.03;;;;;;;19.91;80.56;99531.43;1620872;87;21151;-81
2021/06/27 01:06:14;;;;;;;9.13;6.37;;;;;;;19.89;80.62;99528.04;1607186;88;21185;-80
2021/06/27 01:08:43;;;;;;;12.90;6.65;;;;;;;19.90;80.76;99528.41;1609421;88;21014;-81
2021/06/27 01:11:11;;;;;;;8.95;5.83;;;;;;;19.87;80.82;99535.83;1609427;88;20998;-78
2021/06/27 01:13:37;;;;;;;10.38;5.50;;;;;;;19.84;80.71;99538.28;1629691;87;20991;-77
2021/06/27 01:16:05;;;;;;;6.83;5.53;;;;;;;19.81;81.06;99544.39;1615491;87;21125;-77
2021/06/27 01:18:32;;;;;;;11.48;5.42;;;;;;;19.76;81.40;99547.45;1630926;87;21092;-76
2021/06/27 01:20:59;;;;;;;10.05;6.78;;;;;;;19.73;81.53;99547.69;1631582;87;21046;-78
2021/06/27 01:23:26;;;;;;;12.20;6.47;;;;;;;19.71;81.68;99538.95;1631040;87;21401;-77
2021/06/27 01:25:55;;;;;;;12.23;6.92;;;;;;;19.67;81.89;99542.36;1619507;87;21623;-76
2021/06/27 01:28:22;;;;;;;11.40;4.65;;;;;;;19.65;81.97;99538.13;1605036;87;21135;-77
2021/06/27 01:30:49;;;;;;;10.45;6.20;;;;;;;19.64;82.17;99533.74;1621480;87;21071;-76
2021/06/27 01:33:20;;;;;;;15.60;6.95;;;;;;;19.61;82.14;99536.69;1609372;87;21077;-76
2021/06/27 01:35:48;;;;;;;13.25;6.87;;;;;;;19.55;82.50;99532.69;1615768;87;21125;-80
2021/06/27 01:38:16;;;;;;;9.58;6.10;;;;;;;19.44;82.95;99537.61;1620092;87;21864;-80
2021/06/27 01:40:44;;;;;;;9.40;6.15;;;;;;;19.34;83.24;99531.32;1611118;87;21078;-80
2021/06/27 01:43:19;;;;;;;12.47;6.42;;;;;;;19.31;83.50;99539.59;1614107;87;21129;-79
2021/06/27 01:45:52;;;;;;;7.45;6.25;;;;;;;19.25;83.59;99542.77;1619845;86;21215;-84
2021/06/27 01:48:20;;;;;;;10.48;6.20;;;;;;;19.17;83.95;99542.56;1633993;85;21059;-82
2021/06/27 01:50:49;;;;;;;9.93;6.53;;;;;;;19.12;84.37;99547.41;1633631;83;24641;-82
2021/06/27 01:53:18;;;;;;;7.15;5.58;;;;;;;19.07;84.50;99551.78;1647890;86;21113;-83
2021/06/27 01:58:28;;;;;;;10.23;6.20;;;;;;;19.07;84.27;99551.33;1804237;79;22346;-84
2021/06/27 02:00:55;;;;;;;9.58;6.22;;;;;;;19.04;84.19;99549.38;1772536;80;21152;-86
2021/06/27 02:03:22;;;;;;;10.38;5.87;;;;;;;19.03;84.32;99552.54;1769364;80;21466;-83
2021/06/27 02:05:49;;;;;;;9.78;4.08;;;;;;;19.01;84.37;99556.31;1769053;80;21110;-83
2021/06/27 02:08:15;;;;;;;9.65;5.75;;;;;;;18.99;84.67;99545.75;1774786;79;21596;-84
2021/06/27 02:10:42;;;;;;;11.80;6.22;;;;;;;19.01;84.60;99548.30;1711045;82;21064;-84
2021/06/27 02:13:11;;;;;;;11.18;5.90;;;;;;;19.02;84.42;99553.50;1712947;83;21795;-83
2021/06/27 02:15:39;;;;;;;10.55;6.53;;;;;;;19.01;84.39;99546.48;1743504;81;21156;-82
2021/06/27 02:18:15;;;;;;;10.32;5.90;;;;;;;19.00;84.40;99560.80;1713391;82;21027;-81
2021/06/27 02:20:43;;;;;;;8.30;5.78;;;;;;;18.99;84.48;99567.09;1750046;81;21132;-80
2021/06/27 02:23:10;;;;;;;14.35;6.00;;;;;;;18.98;84.47;99564.55;1731091;81;21108;-79
2021/06/27 02:25:37;;;;;;;9.68;5.28;;;;;;;18.98;84.45;99570.75;1715175;81;21031;-78
2021/06/27 02:28:04;;;;;;;9.53;5.95;;;;;;;18.98;84.52;99573.42;1728718;81;21154;-77
2021/06/27 02:30:31;;;;;;;10.00;5.30;;;;;;;18.99;84.51;99575.10;1733681;81;21064;-79
2021/06/27 02:32:59;;;;;;;9.65;5.80;;;;;;;18.98;84.54;99576.09;1712773;82;21073;-79
2021/06/27 02:35:26;;;;;;;14.25;5.97;;;;;;;18.96;84.55;99574.03;1746123;81;21077;-80
2021/06/27 02:37:53;;;;;;;8.88;5.50;;;;;;;19.02;84.70;99576.17;1728772;81;21511;-80
2021/06/27 02:40:20;;;;;;;13.68;6.60;;;;;;;19.05;84.59;99576.45;1745114;81;21066;-78
2021/06/27 02:42:47;;;;;;;10.63;6.03;;;;;;;19.06;84.80;99580.80;1720812;81;21096;-76
2021/06/27 02:45:14;;;;;;;10.68;6.65;;;;;;;19.06;84.88;99577.63;1746107;81;21094;-78
2021/06/27 02:47:42;;;;;;;8.58;5.58;;;;;;;19.08;84.93;99576.19;1737664;81;21034;-77
2021/06/27 02:50:13;;;;;;;11.50;5.17;;;;;;;19.08;84.83;99571.69;1726027;81;21128;-78
2021/06/27 02:52:39;;;;;;;9.10;5.22;;;;;;;19.12;84.75;99568.76;1723749;82;21220;-78
2021/06/27 02:55:10;;;;;;;8.48;5.33;;;;;;;19.15;84.67;99564.53;1726383;82;21095;-80
2021/06/27 02:57:38;;;;;;;8.00;5.10;;;;;;;19.17;84.48;99571.44;1723452;82;21069;-77
2021/06/27 03:00:13;;;;;;;8.60;5.50;;;;;;;19.20;84.45;99578.34;1697777;83;21257;-76
2021/06/27 03:02:40;;;;;;;6.60;4.80;;;;;;;19.24;84.27;99584.63;1697927;83;21093;-76
2021/06/27 03:05:10;;;;;;;9.50;5.62;;;;;;;19.27;84.18;99589.71;1701657;84;21720;-78
2021/06/27 03:07:37;;;;;;;6.90;5.10;;;;;;;19.33;83.86;99607.06;1680051;83;21081;-76
2021/06/27 03:10:06;;;;;;;8.83;4.72;;;;;;;19.37;83.62;99600.51;1684061;83;21059;-77
2021/06/27 03:12:34;;;;;;;5.42;4.20;;;;;;;19.42;83.48;99594.80;1733241;81;21546;-78
2021/06/27 03:15:03;;;;;;;9.25;4.72;;;;;;;19.46;83.30;99597.08;1748615;81;21053;-77
2021/06/27 03:17:32;;;;;;;6.00;4.37;;;;;;;19.52;83.04;99592.20;1743870;81;21106;-77
2021/06/27 03:20:00;;;;;;;7.40;3.12;;;;;;;19.57;82.64;99596.66;1741614;81;21096;-77
2021/06/27 03:22:27;;;;;;;5.72;4.10;;;;;;;19.62;82.52;99593.12;1735942;81;21717;-76
2021/06/27 03:24:54;;;;;;;8.40;3.33;;;;;;;19.67;82.39;99594.45;1723533;81;21113;-75
2021/06/27 03:27:21;;;;;;;4.90;3.12;;;;;;;19.72;82.29;99602.11;1721787;83;21105;-76
2021/06/27 03:29:49;;;;;;;4.80;3.25;;;;;;;19.76;82.14;99596.00;1739604;81;21102;-77
2021/06/27 03:32:16;;;;;;;7.17;4.35;;;;;;;19.80;81.95;99605.47;1728865;81;21578;-75
2021/06/27 03:34:43;;;;;;;8.28;4.35;;;;;;;19.82;81.77;99604.36;1744559;81;21061;-76
2021/06/27 03:37:12;;;;;;;6.50;4.70;;;;;;;19.84;81.39;99602.41;1730635;81;21071;-80
2021/06/27 03:39:40;;;;;;;8.55;5.10;;;;;;;19.86;81.17;99593.78;1738556;81;21104;-82
2021/06/27 03:42:08;;;;;;;8.25;4.97;;;;;;;19.91;81.02;99586.21;1740021;81;21105;-83
2021/06/27 03:44:38;;;;;;;7.10;5.15;;;;;;;19.96;80.69;99584.98;1731817;81;21701;-83
2021/06/27 03:47:05;;;;;;;9.55;4.90;;;;;;;20.02;80.63;99588.48;1735986;81;21010;-84
2021/06/27 03:49:32;;;;;;;7.78;5.35;;;;;;;20.08;80.36;99584.80;1735912;81;21079;-81
2021/06/27 03:52:00;;;;;;;8.55;5.03;;;;;;;20.16;79.84;99588.14;1709903;83;21111;-81
2021/06/27 03:54:27;;;;;;;10.93;5.80;;;;;;;20.25;79.33;99584.68;1714451;83;21179;-82
2021/06/27 03:56:55;;;;;;;8.43;5.33;;;;;;;20.31;78.95;99588.17;1718626;82;21092;-77
2021/06/27 03:59:23;;;;;;;4.15;3.47;;;;;;;20.40;78.67;99570.95;1711275;83;22113;-80
2021/06/27 04:01:52;;;;;;;5.12;3.33;;;;;;;20.50;78.51;99570.53;1700692;83;21087;-80
2021/06/27 04:04:19;;;;;;;9.33;4.37;;;;;;;20.64;78.19;99568.02;1698899;83;21072;-81
2021/06/27 04:06:46;;;;;;;5.70;3.67;;;;;;;20.78;77.84;99561.45;1703023;79;21059;-75
2021/06/27 04:09:13;;;;;;;9.75;4.95;;;;;;;20.95;77.32;99568.30;1713576;82;21021;-72
2021/06/27 04:11:41;;;;;;;7.20;4.87;;;;;;;21.10;76.75;99560.75;1701739;83;21586;-72
2021/06/27 04:14:08;;;;;;;4.58;3.70;;;;;;;21.25;76.10;99550.97;1700915;83;21101;-71
2021/06/27 04:16:36;;;;;;;7.03;3.95;;;;;;;21.43;75.16;99539.11;1705278;83;21116;-71
2021/06/27 04:19:03;;;;;;;5.58;4.55;;;;;;;21.62;74.12;99538.25;1703530;83;21124;-72
2021/06/27 04:21:29;;;;;;;7.90;4.95;;;;;;;21.77;73.24;99539.52;1702998;83;21032;-73
2021/06/27 04:23:57;;;;;;;7.20;4.65;;;;;;;21.92;73.05;99531.36;1705573;83;21128;-71
2021/06/27 04:26:24;;;;;;;7.28;4.67;;;;;;;22.19;72.17;99537.80;1709704;82;21092;-73
2021/06/27 04:28:52;;;;;;;10.60;5.20;;;;;;;22.43;71.63;99543.17;1701658;83;21094;-72
2021/06/27 04:31:19;;;;;;;9.08;4.50;;;;;;;22.60;69.87;99546.44;1703700;83;21121;-72
2021/06/27 04:33:46;;;;;;;7.83;5.15;;;;;;;22.66;68.73;99543.17;1700306;83;21110;-71
2021/06/27 04:36:16;;;;;;;7.17;5.15;;;;;;;22.66;68.83;99544.52;1704534;83;21101;-72
2021/06/27 04:38:45;;;;;;;10.75;5.40;;;;;;;22.72;69.02;99544.40;1681790;83;21123;-71
2021/06/27 04:41:12;;;;;;;11.78;5.10;;;;;;;22.86;68.08;99557.31;1703822;82;21638;-72
2021/06/27 04:43:40;;;;;;;8.85;4.65;;;;;;;23.04;68.09;99558.23;1707407;83;21732;-71
2021/06/27 04:46:07;;;;;;;6.62;4.72;;;;;;;23.35;66.99;99550.31;1701265;83;21065;-72
2021/06/27 04:48:36;;;;;;;6.95;4.65;;;;;;;23.71;66.01;99563.75;1710775;83;21069;-72
2021/06/27 04:51:04;;;;;;;10.13;4.70;;;;;;;24.07;62.79;99569.45;1673227;83;28256;-72
2021/06/27 04:53:31;;;;;;;9.55;4.28;;;;;;;24.39;62.14;99580.09;1704405;83;21588;-70
2021/06/27 04:55:58;;;;;;;7.30;4.55;;;;;;;24.64;59.86;99595.91;1704425;83;21107;-72
2021/06/27 04:58:27;;;;;;;7.78;4.28;;;;;;;24.81;58.58;99598.67;1715173;83;21097;-72
2021/06/27 05:01:03;;;;;;;8.05;3.70;;;;;;;24.82;58.04;99597.66;1710632;83;21088;-74
2021/06/27 05:03:31;;;;;;;11.10;4.20;;;;;;;24.87;58.06;99596.19;1708933;83;21622;-73
2021/06/27 05:05:58;;;;;;;6.25;3.72;;;;;;;24.86;57.49;99593.64;1711274;83;21037;-72
2021/06/27 05:08:24;;;;;;;8.80;4.47;;;;;;;24.80;57.49;99601.88;1714915;83;21099;-72
2021/06/27 05:10:51;;;;;;;8.18;4.42;;;;;;;24.81;58.12;99613.48;1721577;83;21045;-74
2021/06/27 05:13:18;;;;;;;16.02;4.83;;;;;;;24.74;57.70;99613.79;1708164;83;21589;-74
2021/06/27 05:15:46;;;;;;;26.30;6.30;;;;;;;24.74;58.27;99615.97;1708610;83;21055;-72
2021/06/27 05:18:13;;;;;;;23.83;6.67;;;;;;;24.70;58.87;99619.98;1708488;83;21138;-73
2021/06/27 05:20:42;;;;;;;27.62;8.45;;;;;;;24.66;59.36;99629.38;1708039;83;22245;-72
2021/06/27 05:23:09;;;;;;;31.85;8.33;;;;;;;24.62;59.50;99634.77;1705050;83;21041;-72
2021/06/27 05:25:37;;;;;;;22.75;7.35;;;;;;;24.59;59.98;99633.71;1708395;83;21591;-72
2021/06/27 05:28:05;;;;;;;31.52;8.55;;;;;;;24.54;60.40;99640.92;1710141;82;21134;-72
2021/06/27 05:30:33;;;;;;;29.70;8.08;;;;;;;24.54;60.31;99640.08;1708609;83;21052;-72
2021/06/27 05:33:01;;;;;;;19.35;7.62;;;;;;;24.60;60.20;99637.60;1708535;83;21122;-70
2021/06/27 05:35:28;;;;;;;19.73;7.17;;;;;;;24.65;59.20;99642.00;1708656;83;21069;-72
2021/06/27 05:37:55;;;;;;;18.50;6.17;;;;;;;24.73;59.13;99631.77;1716078;82;21523;-72
2021/06/27 05:40:24;;;;;;;12.68;5.85;;;;;;;24.79;58.80;99632.48;1708418;83;21160;-72
2021/06/27 05:42:51;;;;;;;12.58;6.50;;;;;;;24.75;58.65;99631.11;1708528;83;21067;-72
2021/06/27 05:45:18;;;;;;;9.33;5.45;;;;;;;24.67;59.78;99636.47;1708203;83;21097;-72
2021/06/27 05:47:45;;;;;;;11.20;5.67;;;;;;;24.64;59.88;99643.02;1714666;83;21104;-71
2021/06/27 05:50:13;;;;;;;10.60;5.37;;;;;;;24.57;60.38;99634.37;1717582;83;21065;-72
2021/06/27 05:52:40;;;;;;;10.90;5.17;;;;;;;24.54;60.89;99630.66;1703758;83;22312;-72
2021/06/27 05:55:08;;;;;;;14.70;5.95;;;;;;;24.59;60.08;99633.71;1715725;83;21077;-72
2021/06/27 05:57:35;;;;;;;10.30;5.87;;;;;;;24.84;59.71;99618.03;1717692;82;21057;-70
2021/06/27 06:00:05;;;;;;;13.45;5.20;;;;;;;25.17;59.78;99611.45;1706049;82;21089;-72
2021/06/27 06:02:34;;;;;;;11.10;4.97;;;;;;;25.47;58.57;99617.29;1705467;83;20956;-71
2021/06/27 06:05:01;;;;;;;9.80;4.72;;;;;;;25.72;57.92;99606.88;1692818;83;21033;-74
2021/06/27 06:07:28;;;;;;;7.92;4.05;;;;;;;26.02;56.84;99611.30;1701142;83;21128;-75
2021/06/27 06:09:55;;;;;;;6.08;4.65;;;;;;;26.36;55.78;99611.58;1692421;83;21806;-81
2021/06/27 06:12:22;;;;;;;9.33;4.40;;;;;;;26.69;53.39;99599.41;1692164;83;21124;-73
2021/06/27 06:14:49;;;;;;;6.53;3.72;;;;;;;27.07;53.05;99596.36;1696902;83;21531;-82
2021/06/27 06:17:16;;;;;;;8.88;4.25;;;;;;;27.36;52.00;99602.48;1699493;83;21112;-72
2021/06/27 06:19:43;;;;;;;8.25;4.10;;;;;;;27.64;52.05;99604.67;1692665;83;21532;-72
2021/06/27 06:22:10;;;;;;;6.30;3.72;;;;;;;28.07;50.39;99599.63;1704102;82;21143;-72
2021/06/27 06:24:37;;;;;;;11.25;3.35;;;;;;;28.29;48.67;99599.76;1657438;84;21132;-72
2021/06/27 06:27:06;;;;;;;5.40;3.40;;;;;;;28.40;48.14;99602.02;1656029;85;21061;-72
2021/06/27 06:29:33;;;;;;;8.70;4.08;;;;;;;28.56;46.34;99609.16;1654323;86;21023;-72
2021/06/27 06:32:00;;;;;;;7.97;3.50;;;;;;;28.75;47.51;99605.05;1659012;84;21578;-76
2021/06/27 06:34:27;;;;;;;7.65;3.70;;;;;;;28.92;47.09;99602.48;1697758;83;21139;-75
2021/06/27 06:36:54;;;;;;;8.13;3.90;;;;;;;29.12;46.14;99588.35;1695264;83;21598;-75
2021/06/27 06:39:22;;;;;;;5.65;3.80;;;;;;;29.40;45.60;99587.97;1698446;83;21104;-76
2021/06/27 06:41:50;;;;;;;8.63;3.45;;;;;;;29.58;44.90;99583.95;1721054;83;21057;-76
2021/06/27 06:44:18;;;;;;;9.45;3.80;;;;;;;29.72;44.88;99582.24;1707480;83;21112;-74
2021/06/27 06:46:45;;;;;;;8.95;3.35;;;;;;;29.91;44.41;99578.88;1698023;83;21139;-74
2021/06/27 06:49:13;;;;;;;7.45;3.33;;;;;;;30.48;44.40;99566.14;1704219;83;21011;-74
2021/06/27 06:51:41;;;;;;;9.43;4.00;;;;;;;30.48;44.40;99566.14;1653902;83;24760;-74
2021/06/27 06:54:09;;;;;;;11.28;3.40;;;;;;;30.59;42.94;99576.45;1640642;85;21093;-75
2021/06/27 06:56:35;;;;;;;7.17;3.45;;;;;;;30.57;42.89;99573.63;1661443;84;21081;-75
2021/06/27 06:59:03;;;;;;;9.13;3.05;;;;;;;30.57;42.69;99579.05;1653583;84;21084;-76
2021/06/27 07:01:30;;;;;;;12.78;4.03;;;;;;;30.48;43.08;99566.14;1651747;85;21534;-75
2021/06/27 07:03:57;;;;;;;7.53;4.28;;;;;;;30.41;42.93;99566.63;1657361;85;21141;-74
2021/06/27 07:06:25;;;;;;;7.95;4.03;;;;;;;30.48;43.00;99555.28;1656418;85;21307;-74
2021/06/27 07:08:52;;;;;;;8.45;3.92;;;;;;;30.67;42.86;99550.48;1654471;85;21086;-74
2021/06/27 07:11:19;;;;;;;7.10;3.70;;;;;;;30.83;42.24;99543.00;1659976;85;21863;-76
2021/06/27 07:13:52;;;;;;;5.78;4.33;;;;;;;31.02;42.12;99539.58;1656690;85;21101;-77
2021/06/27 07:16:21;;;;;;;6.17;4.08;;;;;;;31.30;41.91;99529.08;1659058;85;21606;-75
2021/06/27 07:18:48;;;;;;;9.08;4.42;;;;;;;31.46;40.84;99516.47;1654425;85;21094;-77
2021/06/27 07:21:16;;;;;;;8.85;4.53;;;;;;;31.65;41.17;99512.61;1655030;85;21089;-75
2021/06/27 07:23:44;;;;;;;7.20;4.35;;;;;;;31.82;40.98;99511.16;1661497;85;21606;-74
2021/06/27 07:26:11;;;;;;;6.60;4.03;;;;;;;32.00;40.48;99502.35;1663426;85;21171;-74
2021/06/27 07:28:38;;;;;;;7.12;3.72;;;;;;;32.12;39.83;99499.84;1665351;85;21097;-74
2021/06/27 07:31:06;;;;;;;5.70;3.72;;;;;;;32.17;39.43;99497.31;1656488;85;21155;-75
2021/06/27 07:33:33;;;;;;;10.35;4.72;;;;;;;32.28;39.56;99486.27;1658923;85;21674;-74
2021/06/27 07:36:01;;;;;;;11.83;4.20;;;;;;;32.34;39.88;99475.35;1657886;85;21076;-77
2021/06/27 07:38:29;;;;;;;8.58;3.92;;;;;;;32.47;39.20;99467.67;1662333;85;21147;-75
2021/06/27 07:40:56;;;;;;;7.62;4.10;;;;;;;32.64;38.89;99461.77;1654437;85;21136;-75
2021/06/27 07:43:24;;;;;;;9.88;4.70;;;;;;;32.69;39.07;99457.31;1655148;84;21092;-74
2021/06/27 07:45:51;;;;;;;9.10;3.90;;;;;;;32.55;38.86;99457.08;1656975;84;21082;-75
2021/06/27 07:48:19;;;;;;;7.87;3.60;;;;;;;32.19;38.88;99446.19;1658141;84;21152;-75
2021/06/27 07:50:48;;;;;;;11.68;4.33;;;;;;;31.97;38.09;99447.80;1649070;85;21106;-74
2021/06/27 07:53:15;;;;;;;6.55;3.52;;;;;;;31.91;38.99;99441.83;1671015;85;25459;-74
2021/06/27 07:55:42;;;;;;;5.97;3.37;;;;;;;32.06;38.66;99438.05;1669336;84;21163;-75
2021/06/27 07:58:09;;;;;;;7.35;3.42;;;;;;;32.40;38.56;99435.00;1647896;85;21041;-74
2021/06/27 08:00:36;;;;;;;6.55;3.35;;;;;;;32.71;36.53;99429.31;1664211;85;21546;-76
2021/06/27 08:03:03;;;;;;;9.28;3.87;;;;;;;32.70;37.35;99423.56;1664567;85;22284;-75
2021/06/27 08:05:32;;;;;;;8.50;3.35;;;;;;;32.73;36.51;99429.11;1657509;85;21077;-74
2021/06/27 08:07:59;;;;;;;8.10;3.75;;;;;;;32.91;36.65;99431.11;1641932;86;21125;-75
2021/06/27 08:10:26;;;;;;;10.43;3.70;;;;;;;33.00;36.74;99417.52;1652293;85;21089;-73
2021/06/27 08:12:54;;;;;;;11.10;3.98;;;;;;;33.02;36.51;99412.67;1661990;85;22251;-75
2021/06/27 08:15:21;;;;;;;10.63;3.62;;;;;;;33.07;36.64;99423.78;1654081;85;21049;-76
2021/06/27 08:17:49;;;;;;;4.95;3.37;;;;;;;33.07;36.30;99421.06;1650552;85;21062;-75
2021/06/27 08:20:20;;;;;;;8.63;4.22;;;;;;;32.97;36.26;99426.15;1661866;85;21197;-75
2021/06/27 08:22:48;;;;;;;9.10;4.75;;;;;;;32.98;37.52;99427.27;1651890;85;21097;-75
2021/06/27 08:25:15;;;;;;;8.25;4.17;;;;;;;32.87;38.46;99432.59;1650709;85;21199;-74
2021/06/27 08:27:42;;;;;;;5.80;4.60;;;;;;;32.60;39.19;99425.91;1651050;85;21108;-76
2021/06/27 08:30:12;;;;;;;5.58;3.95;;;;;;;32.35;39.65;99420.36;1653950;85;21085;-74
2021/06/27 08:32:43;;;;;;;10.28;4.50;;;;;;;32.16;39.33;99418.00;1645055;85;21125;-73
2021/06/27 08:35:13;;;;;;;10.40;5.00;;;;;;;31.90;40.20;99423.80;1645509;85;21121;-75
2021/06/27 08:37:40;;;;;;;10.30;4.53;;;;;;;31.93;41.62;99437.02;1647351;85;22282;-74
2021/06/27 08:40:09;;;;;;;10.23;4.72;;;;;;;31.97;39.32;99446.44;1633122;85;21177;-73
2021/06/27 08:42:36;;;;;;;8.08;4.58;;;;;;;32.04;39.38;99448.31;1647117;85;21548;-73
2021/06/27 08:45:06;;;;;;;9.33;5.20;;;;;;;32.16;40.57;99456.12;1648582;85;21105;-75
2021/06/27 08:47:34;;;;;;;8.58;4.90;;;;;;;32.27;39.85;99450.55;1642705;85;21117;-74
2021/06/27 08:50:01;;;;;;;11.70;4.70;;;;;;;32.31;39.96;99453.17;1652964;85;21147;-74
2021/06/27 08:52:28;;;;;;;10.50;4.70;;;;;;;32.35;39.48;99463.95;1638846;85;31831;-74
2021/06/27 08:54:56;;;;;;;10.50;4.97;;;;;;;32.31;39.43;99459.45;1615776;87;21078;-75
2021/06/27 08:57:23;;;;;;;7.50;4.40;;;;;;;32.42;39.25;99469.35;1607648;87;21155;-75
2021/06/27 08:59:50;;;;;;;7.50;5.03;;;;;;;32.63;39.28;99469.11;1618334;86;21729;-73
2021/06/27 09:02:19;;;;;;;10.72;4.78;;;;;;;32.96;39.10;99473.55;1659073;84;21131;-74
2021/06/27 09:04:47;;;;;;;;;;;;;;;33.33;38.76;99476.48;1654356;84;21075;-73
2021/06/27 09:07:36;;;;;;;11.22;5.10;;;;;;;33.76;37.83;99482.04;1652462;84;20182;-73
2021/06/27 09:10:20;;;;;;;10.55;4.80;;;;;;;34.01;36.34;99473.82;1655302;84;21072;-75
2021/06/27 09:12:56;;;;;;;6.45;4.12;;;;;;;34.14;35.27;99488.42;1648933;84;21036;-74
2021/06/27 09:15:45;;;;;;;9.60;4.75;;;;;;;34.45;35.08;99485.55;1649884;84;21133;-72
2021/06/27 09:18:21;;;;;;;8.85;4.50;;;;;;;34.70;34.52;99490.13;1643492;84;21118;-72
2021/06/27 09:20:54;;;;;;;8.88;4.30;;;;;;;35.00;34.47;99493.41;1655471;84;21083;-73
2021/06/27 09:23:43;;;;;;;10.08;4.50;;;;;;;34.97;33.83;99482.91;1658809;84;21745;-74
2021/06/27 09:26:10;;;;;;;8.23;3.92;;;;;;;34.86;33.78;99484.02;1651928;84;21118;-73
2021/06/27 09:28:46;;;;;;;7.40;3.50;;;;;;;34.81;32.78;99487.98;1625356;86;21167;-74
2021/06/27 09:31:38;;;;;;;6.97;3.70;;;;;;;34.78;31.80;99481.59;1654138;84;21086;-73
2021/06/27 09:34:08;;;;;;;5.05;3.70;;;;;;;34.81;32.12;99490.72;1666743;84;21857;-73
2021/06/27 09:36:46;;;;;;;7.58;3.83;;;;;;;34.76;32.70;99482.34;1649983;84;21126;-72
2021/06/27 09:39:15;;;;;;;5.95;3.37;;;;;;;34.57;32.58;99492.98;1662747;84;21675;-71
2021/06/27 09:41:54;;;;;;;4.80;3.47;;;;;;;34.26;32.83;99492.92;1665455;84;21151;-73
2021/06/27 09:44:22;;;;;;;8.85;3.60;;;;;;;33.92;33.06;99499.75;1631587;86;21460;-72
2021/06/27 09:46:55;;;;;;;8.90;4.10;;;;;;;33.80;33.86;99490.64;1659578;84;21071;-72
2021/06/27 09:49:32;;;;;;;8.73;3.80;;;;;;;33.87;34.62;99492.77;1657914;84;21603;-72
2021/06/27 09:52:12;;;;;;;7.08;3.62;;;;;;;33.88;33.77;99495.80;1657248;84;21033;-72
2021/06/27 09:54:39;;;;;;;6.67;3.90;;;;;;;33.87;34.30;99496.87;1646540;81;21060;-73
2021/06/27 09:57:07;;;;;;;9.08;3.47;;;;;;;33.95;34.39;99495.20;1636371;86;21068;-72
2021/06/27 09:59:41;;;;;;;7.30;3.67;;;;;;;34.08;33.35;99498.34;1632183;86;21128;-72
2021/06/27 10:02:08;;;;;;;5.45;3.80;;;;;;;34.35;32.90;99500.30;1606962;87;21640;-72
2021/06/27 10:04:36;;;;;;;7.40;4.05;;;;;;;34.78;33.22;99498.00;1583514;89;21434;-71
2021/06/27 10:07:05;;;;;;;6.12;4.12;;;;;;;35.12;33.15;99494.31;1604073;87;21792;-73
2021/06/27 10:09:34;;;;;;;7.40;4.00;;;;;;;35.25;32.62;99498.22;1583586;88;21093;-72
2021/06/27 10:12:08;;;;;;;5.87;3.70;;;;;;;35.39;32.25;99500.77;1610036;87;21676;-74
2021/06/27 10:14:52;;;;;;;6.85;4.10;;;;;;;35.11;32.65;99496.76;1611071;87;21073;-73
2021/06/27 10:17:23;;;;;;;6.40;4.17;;;;;;;35.17;32.75;99501.28;1608352;87;21487;-72
2021/06/27 10:19:51;;;;;;;6.90;3.40;;;;;;;35.45;31.80;99505.28;1623373;87;21148;-72
2021/06/27 10:22:26;;;;;;;5.15;3.17;;;;;;;35.52;31.08;99512.84;1627619;87;21075;-72
2021/06/27 10:24:48;;;;;;;6.60;4.28;;;;;;;35.60;29.55;99502.94;1615199;87;21084;-72
2021/06/27 10:27:15;;;;;;;6.00;3.92;;;;;;;35.78;28.90;99503.95;1611779;87;21170;-71
2021/06/27 10:29:44;;;;;;;6.55;3.40;;;;;;;35.78;30.14;99501.22;1605684;87;21154;-71
2021/06/27 10:32:16;;;;;;;5.20;3.47;;;;;;;35.88;29.36;99498.70;1607892;87;21156;-72
2021/06/27 10:34:40;;;;;;;7.00;3.62;;;;;;;35.96;29.67;99501.10;1603446;87;21064;-72
2021/06/27 10:37:37;;;;;;;8.33;4.30;;;;;;;36.05;30.88;99492.81;1605915;87;21633;-71
2021/06/27 10:40:14;;;;;;;6.12;4.05;;;;;;;36.04;30.77;99493.88;1583642;87;21656;-73
2021/06/27 10:43:01;;;;;;;6.67;4.10;;;;;;;36.33;30.62;99485.78;1607842;87;21168;-71
2021/06/27 10:45:31;;;;;;;5.20;3.70;;;;;;;36.52;30.54;99491.39;1604419;87;21171;-73
2021/06/27 10:48:01;;;;;;;5.97;3.80;;;;;;;36.55;29.73;99492.27;1608241;87;21132;-73
2021/06/27 10:50:52;;;;;;;6.03;4.40;;;;;;;36.51;30.06;99497.96;1605188;87;21657;-73
2021/06/27 10:53:19;;;;;;;10.25;5.40;;;;;;;36.59;29.55;99499.52;1602064;87;21324;-74
2021/06/27 10:55:46;;;;;;;8.30;3.85;;;;;;;36.51;30.15;99495.22;1560934;90;21700;-73
2021/06/27 10:58:14;;;;;;;7.33;5.25;;;;;;;36.54;29.45;99493.90;1557595;90;21951;-72
2021/06/27 11:01:00;;;;;;;6.95;4.10;;;;;;;36.47;30.15;99494.58;1584570;88;21122;-73
2021/06/27 11:03:34;;;;;;;7.45;3.45;;;;;;;36.28;30.31;99496.61;1598612;88;21096;-73
2021/06/27 11:06:05;;;;;;;6.03;3.85;;;;;;;35.93;30.91;99501.55;1629233;87;21301;-73
2021/06/27 11:08:41;;;;;;;4.95;4.03;;;;;;;35.59;31.28;99493.06;1632757;87;21626;-73
2021/06/27 11:11:14;;;;;;;7.33;4.10;;;;;;;35.33;32.15;99495.67;1595088;89;21145;-73
2021/06/27 11:13:42;;;;;;;6.85;4.00;;;;;;;35.33;31.46;99498.95;1628081;87;21067;-73
2021/06/27 11:16:13;;;;;;;7.03;4.00;;;;;;;35.49;31.08;99501.01;1629605;87;21636;-73
2021/06/27 11:18:47;;;;;;;6.92;3.92;;;;;;;35.66;30.77;99493.81;1592805;89;21165;-72
2021/06/27 11:21:20;;;;;;;6.20;3.72;;;;;;;35.61;30.85;99499.14;1596301;89;21068;-72
2021/06/27 11:24:03;;;;;;;6.72;3.60;;;;;;;35.61;30.71;99492.81;1630416;87;21054;-73
2021/06/27 11:26:50;;;;;;;7.50;3.77;;;;;;;35.73;31.45;99493.70;1627602;87;21140;-73
2021/06/27 11:29:32;;;;;;;7.30;3.60;;;;;;;35.86;31.35;99496.73;1634781;87;21086;-74
2021/06/27 11:32:15;;;;;;;8.10;3.52;;;;;;;35.92;31.54;99497.16;1581457;90;21147;-74
2021/06/27 11:34:57;;;;;;;15.40;4.20;;;;;;;35.91;30.76;99492.73;1600828;89;21106;-73
2021/06/27 11:37:37;;;;;;;6.83;3.77;;;;;;;35.74;31.17;99489.05;1630885;87;21129;-73
2021/06/27 11:40:06;;;;;;;6.35;4.17;;;;;;;35.46;31.15;99494.10;1631978;87;21151;-72
2021/06/27 11:42:41;;;;;;;6.72;4.30;;;;;;;35.21;32.14;99499.75;1608999;89;21627;-73
2021/06/27 11:45:16;;;;;;;8.83;4.30;;;;;;;34.84;32.68;99494.34;1607157;88;21681;-73